createdAt,value
2019-02-06T00:01:19.295Z,35.23
2019-02-06T00:03:48.313Z,44.58
2019-02-06T00:06:17.247Z,37.08
2019-02-06T00:08:46.321Z,39.25
2019-02-06T00:11:15.696Z,29.95
2019-02-06T00:13:44.650Z,35.00
2019-02-06T00:16:13.726Z,35.15
2019-02-06T00:18:42.738Z,30.60
2019-02-06T00:21:11.754Z,31.77
2019-02-06T00:23:40.673Z,36.50
2019-02-06T00:26:10.081Z,33.75
2019-02-06T00:28:39.095Z,29.12
2019-02-06T00:31:08.266Z,28.38
2019-02-06T00:33:37.143Z,27.87
2019-02-06T00:36:06.129Z,34.88
2019-02-06T00:38:35.190Z,31.25
2019-02-06T00:41:04.294Z,29.45
2019-02-06T00:43:33.205Z,26.62
2019-02-06T00:46:02.224Z,31.35
2019-02-06T00:48:35.101Z,25.70
2019-02-06T00:51:04.154Z,42.53
2019-02-06T00:53:33.068Z,40.35
2019-02-06T00:56:02.267Z,55.55
2019-02-06T00:58:31.200Z,44.80
2019-02-06T01:01:00.044Z,42.73
2019-02-06T01:03:28.958Z,32.65
2019-02-06T01:05:57.960Z,31.73
2019-02-06T01:08:26.802Z,36.63
2019-02-06T01:10:55.738Z,29.82
2019-02-06T01:13:24.725Z,32.17
2019-02-06T01:15:53.677Z,45.75
2019-02-06T01:18:22.805Z,30.82
2019-02-06T01:20:51.656Z,30.60
2019-02-06T01:23:20.579Z,31.50
2019-02-06T01:25:49.976Z,35.52
2019-02-06T01:28:19.405Z,33.35
2019-02-06T01:30:54.737Z,32.98
2019-02-06T01:33:23.721Z,31.82
2019-02-06T01:35:52.663Z,30.37
2019-02-06T01:38:21.657Z,29.70
2019-02-06T01:40:50.664Z,43.60
2019-02-06T01:43:20.060Z,30.52
2019-02-06T01:45:49.144Z,28.62
2019-02-06T01:48:18.038Z,29.48
2019-02-06T01:50:46.880Z,24.95
2019-02-06T01:53:15.879Z,27.58
2019-02-06T01:55:44.809Z,26.62
2019-02-06T01:58:13.733Z,27.98
2019-02-06T02:00:42.746Z,25.65
2019-02-06T02:03:11.577Z,31.80
2019-02-06T02:05:40.513Z,31.02
2019-02-06T02:08:09.768Z,35.48
2019-02-06T02:10:38.696Z,28.73
2019-02-06T02:13:07.711Z,32.90
2019-02-06T02:15:37.282Z,34.45
2019-02-06T02:18:06.790Z,32.00
2019-02-06T02:20:35.729Z,27.70
2019-02-06T02:23:05.059Z,32.53
2019-02-06T02:25:33.912Z,27.07
2019-02-06T02:28:03.861Z,28.73
2019-02-06T02:30:40.119Z,25.43
2019-02-06T02:33:10.687Z,24.00
2019-02-06T02:35:39.595Z,25.57
2019-02-06T02:38:08.550Z,25.20
2019-02-06T02:40:37.380Z,26.45
2019-02-06T02:43:06.386Z,23.90
2019-02-06T02:45:35.310Z,22.58
2019-02-06T02:48:04.323Z,22.13
2019-02-06T02:50:33.323Z,23.70
2019-02-06T02:53:04.154Z,21.65
2019-02-06T02:55:33.654Z,24.52
2019-02-06T02:58:02.599Z,24.47
2019-02-06T03:00:56.702Z,24.82
2019-02-06T03:03:44.729Z,25.60
2019-02-06T03:06:13.830Z,25.70
2019-02-06T03:08:44.710Z,24.47
2019-02-06T03:11:28.165Z,24.18
2019-02-06T03:14:03.479Z,27.75
2019-02-06T03:16:36.049Z,27.35
2019-02-06T03:19:05.509Z,29.25
2019-02-06T03:21:42.245Z,33.60
2019-02-06T03:24:13.608Z,30.80
2019-02-06T03:26:45.825Z,28.12
2019-02-06T03:29:14.989Z,26.93
2019-02-06T03:31:44.492Z,26.75
2019-02-06T03:34:15.672Z,28.55
2019-02-06T03:36:49.625Z,27.67
2019-02-06T03:39:23.668Z,30.62
2019-02-06T03:41:54.593Z,31.27
2019-02-06T03:44:23.515Z,30.90
2019-02-06T03:46:52.712Z,40.10
2019-02-06T03:49:21.837Z,31.02
2019-02-06T03:51:51.653Z,25.25
2019-02-06T03:54:20.714Z,26.75
2019-02-06T03:56:49.961Z,29.12
2019-02-06T03:59:18.835Z,28.10
2019-02-06T04:01:47.854Z,29.20
2019-02-06T04:04:18.480Z,28.62
2019-02-06T04:06:55.164Z,27.32
2019-02-06T04:09:18.514Z,29.50
2019-02-06T04:11:47.826Z,27.20
2019-02-06T04:14:17.523Z,26.52
2019-02-06T04:16:47.161Z,28.32
2019-02-06T04:19:17.065Z,29.72
2019-02-06T04:21:45.932Z,27.00
2019-02-06T04:24:15.767Z,29.72
2019-02-06T04:26:45.060Z,27.02
2019-02-06T04:29:14.341Z,28.35
2019-02-06T04:31:43.269Z,29.55
2019-02-06T04:34:12.186Z,25.48
2019-02-06T04:36:41.185Z,25.30
2019-02-06T04:39:12.509Z,25.20
2019-02-06T04:41:41.795Z,29.77
2019-02-06T04:44:10.804Z,23.90
2019-02-06T04:46:39.726Z,24.95
2019-02-06T04:49:08.661Z,27.70
2019-02-06T04:51:37.610Z,25.80
2019-02-06T04:54:06.917Z,25.55
2019-02-06T04:56:36.304Z,25.65
2019-02-06T04:59:06.068Z,24.85
2019-02-06T05:01:35.057Z,25.15
2019-02-06T05:04:04.206Z,25.70
2019-02-06T05:06:33.060Z,25.90
2019-02-06T05:09:01.916Z,26.25
2019-02-06T05:11:30.767Z,27.90
2019-02-06T05:13:59.644Z,24.10
2019-02-06T05:16:28.609Z,27.00
2019-02-06T05:18:57.556Z,27.20
2019-02-06T05:21:26.557Z,28.35
2019-02-06T05:23:55.427Z,27.13
2019-02-06T05:26:24.358Z,27.93
2019-02-06T05:28:53.881Z,27.80
2019-02-06T05:31:23.257Z,24.95
2019-02-06T05:33:52.276Z,30.15
2019-02-06T05:36:21.233Z,25.55
2019-02-06T05:38:50.262Z,27.70
2019-02-06T05:41:19.359Z,27.85
2019-02-06T05:43:48.325Z,27.52
2019-02-06T05:46:17.314Z,29.15
2019-02-06T05:48:49.335Z,28.62
2019-02-06T05:51:17.534Z,29.32
2019-02-06T05:53:46.533Z,32.98
2019-02-06T05:56:15.409Z,32.13
2019-02-06T05:58:44.383Z,28.30
2019-02-06T06:01:13.766Z,31.17
2019-02-06T06:03:42.844Z,31.23
2019-02-06T06:09:30.220Z,31.05
2019-02-06T06:11:59.450Z,29.40
2019-02-06T06:14:28.439Z,31.17
2019-02-06T06:17:01.179Z,28.70
2019-02-06T06:19:31.442Z,29.23
2019-02-06T06:22:01.101Z,29.92
2019-02-06T06:24:30.324Z,26.82
2019-02-06T06:26:59.272Z,31.65
2019-02-06T06:29:28.565Z,28.40
2019-02-06T06:32:00.715Z,27.80
2019-02-06T06:34:30.052Z,25.97
2019-02-06T06:37:00.230Z,23.30
2019-02-06T06:39:29.586Z,28.40
2019-02-06T06:42:00.037Z,28.50
2019-02-06T06:44:29.405Z,27.30
2019-02-06T06:46:58.363Z,29.82
2019-02-06T06:49:27.323Z,27.02
2019-02-06T06:51:57.108Z,30.60
2019-02-06T06:54:27.377Z,29.80
2019-02-06T06:56:56.250Z,28.50
2019-02-06T06:59:25.611Z,27.80
2019-02-06T07:02:05.745Z,26.73
2019-02-06T07:04:35.500Z,28.25
2019-02-06T07:07:05.873Z,21.10
2019-02-06T07:09:35.021Z,24.27
2019-02-06T07:12:04.036Z,23.12
2019-02-06T07:14:32.980Z,23.98
2019-02-06T07:17:02.312Z,26.70
2019-02-06T07:19:31.654Z,20.70
2019-02-06T07:22:00.516Z,22.55
2019-02-06T07:24:29.463Z,24.18
2019-02-06T07:26:58.477Z,27.37
2019-02-06T07:29:27.649Z,20.15
2019-02-06T07:31:56.609Z,20.40
2019-02-06T07:34:26.303Z,19.45
2019-02-06T07:36:58.481Z,18.12
2019-02-06T07:39:28.731Z,21.33
2019-02-06T07:41:57.688Z,21.10
2019-02-06T07:44:27.133Z,21.10
2019-02-06T07:46:55.998Z,19.45
2019-02-06T07:49:27.040Z,19.45
2019-02-06T07:51:55.995Z,22.20
2019-02-06T07:54:25.413Z,21.10
2019-02-06T07:56:54.477Z,21.40
2019-02-06T07:59:23.516Z,19.65
2019-02-06T08:01:54.695Z,21.15
2019-02-06T08:04:23.643Z,19.55
2019-02-06T08:06:52.660Z,22.00
2019-02-06T08:09:21.584Z,21.17
2019-02-06T08:11:50.446Z,22.75
2019-02-06T08:14:19.743Z,23.00
2019-02-06T08:16:48.690Z,22.75
2019-02-06T08:19:17.617Z,22.40
2019-02-06T08:21:49.694Z,21.73
2019-02-06T08:24:17.721Z,22.65
2019-02-06T08:26:46.747Z,22.67
2019-02-06T08:29:15.733Z,24.00
2019-02-06T08:31:44.644Z,20.75
2019-02-06T08:34:13.662Z,22.35
2019-02-06T08:36:42.936Z,24.87
2019-02-06T08:39:14.342Z,20.55
2019-02-06T08:41:43.351Z,26.42
2019-02-06T08:44:12.476Z,26.10
2019-02-06T08:46:41.738Z,23.57
2019-02-06T08:49:11.263Z,34.48
2019-02-06T08:51:41.081Z,29.07
2019-02-06T08:54:10.536Z,20.43
2019-02-06T08:56:39.570Z,23.52
2019-02-06T08:59:09.157Z,22.80
2019-02-06T09:01:41.146Z,23.25
2019-02-06T09:04:12.027Z,23.67
2019-02-06T09:06:41.110Z,22.62
2019-02-06T09:09:11.450Z,19.35
2019-02-06T09:11:42.481Z,23.67
2019-02-06T09:14:11.497Z,19.98
2019-02-06T09:16:40.574Z,25.48
2019-02-06T09:19:11.929Z,26.33
2019-02-06T09:21:41.492Z,25.97
2019-02-06T09:24:21.591Z,23.42
2019-02-06T09:29:48.102Z,23.10
2019-02-06T09:32:48.156Z,27.55
2019-02-06T09:35:50.074Z,26.68
2019-02-06T09:38:31.612Z,25.77
2019-02-06T09:43:57.664Z,26.62
2019-02-06T09:46:34.255Z,26.50
2019-02-06T09:49:15.200Z,24.67
2019-02-06T09:51:45.805Z,23.57
2019-02-06T09:54:19.921Z,28.30
2019-02-06T09:56:57.512Z,24.30
2019-02-06T09:59:30.677Z,25.10
2019-02-06T10:02:02.641Z,25.33
2019-02-06T10:04:32.917Z,22.97
2019-02-06T10:07:08.410Z,29.67
2019-02-06T10:09:40.844Z,27.03
2019-02-06T10:12:15.361Z,30.30
2019-02-06T10:14:59.464Z,27.60
2019-02-06T10:17:32.801Z,25.87
2019-02-06T10:20:38.675Z,24.23
2019-02-06T10:23:26.772Z,25.10
2019-02-06T10:25:55.686Z,25.27
2019-02-06T10:28:36.318Z,25.17
2019-02-06T10:31:27.736Z,27.63
2019-02-06T10:34:05.260Z,25.20
2019-02-06T10:36:40.493Z,22.27
2019-02-06T10:39:15.565Z,22.87
2019-02-06T10:41:50.148Z,23.87
2019-02-06T10:44:21.702Z,26.20
2019-02-06T10:46:51.669Z,29.13
2019-02-06T10:49:28.513Z,24.33
2019-02-06T10:51:57.642Z,25.60
2019-02-06T10:54:30.024Z,25.60
2019-02-06T10:57:18.293Z,27.33
2019-02-06T11:00:06.073Z,25.03
2019-02-06T11:02:38.477Z,27.37
2019-02-06T11:05:08.936Z,27.60
2019-02-06T11:07:38.555Z,24.93
2019-02-06T11:10:10.787Z,22.67
2019-02-06T11:12:45.098Z,24.17
2019-02-06T11:15:17.487Z,25.73
2019-02-06T11:17:49.240Z,23.63
2019-02-06T11:20:19.359Z,25.37
2019-02-06T11:22:55.541Z,26.37
2019-02-06T11:25:28.048Z,23.40
2019-02-06T11:31:36.344Z,29.23
2019-02-06T11:34:13.134Z,26.40
2019-02-06T11:36:57.501Z,27.43
2019-02-06T11:39:27.639Z,27.37
2019-02-06T11:41:58.346Z,27.67
2019-02-06T11:44:28.665Z,28.33
2019-02-06T11:46:57.727Z,30.20
2019-02-06T11:49:36.428Z,28.70
2019-02-06T11:52:08.561Z,31.63
2019-02-06T11:54:40.205Z,31.93
2019-02-06T11:57:09.323Z,32.33
2019-02-06T11:59:39.492Z,32.40
2019-02-06T12:02:11.112Z,32.73
2019-02-06T12:04:40.452Z,33.27
2019-02-06T12:07:09.505Z,24.83
2019-02-06T12:09:43.125Z,26.90
2019-02-06T12:12:15.201Z,30.27
2019-02-06T12:14:45.137Z,29.30
2019-02-06T12:17:22.407Z,26.03
2019-02-06T12:19:52.490Z,27.10
2019-02-06T12:22:23.428Z,26.33
2019-02-06T12:24:52.560Z,30.80
2019-02-06T12:27:21.822Z,29.03
2019-02-06T12:29:52.420Z,27.17
2019-02-06T12:32:21.430Z,31.90
2019-02-06T12:34:50.872Z,28.33
2019-02-06T12:37:20.274Z,29.00
2019-02-06T12:39:49.813Z,32.73
2019-02-06T12:42:18.912Z,29.63
2019-02-06T12:44:50.367Z,27.73
2019-02-06T12:47:20.020Z,28.03
2019-02-06T12:49:49.068Z,28.53
2019-02-06T12:52:23.546Z,28.10
2019-02-06T12:54:55.390Z,30.53
2019-02-06T12:57:36.006Z,28.57
2019-02-06T13:00:19.326Z,29.30
2019-02-06T13:02:28.059Z,32.97
2019-02-06T13:04:57.971Z,31.67
2019-02-06T13:07:29.956Z,26.43
2019-02-06T13:09:59.821Z,27.40
2019-02-06T13:12:31.137Z,30.13
2019-02-06T13:15:02.173Z,29.27
2019-02-06T13:17:31.844Z,30.97
2019-02-06T13:20:01.356Z,28.70
2019-02-06T13:22:31.645Z,28.73
2019-02-06T13:25:00.614Z,27.00
2019-02-06T13:27:31.340Z,29.60
2019-02-06T13:30:04.182Z,29.23
2019-02-06T13:32:33.109Z,37.27
2019-02-06T13:35:03.237Z,31.20
2019-02-06T13:37:33.354Z,33.00
2019-02-06T13:40:06.841Z,30.73
2019-02-06T13:42:36.111Z,39.43
2019-02-06T13:45:08.859Z,36.23
2019-02-06T13:47:38.091Z,37.50
2019-02-06T13:50:21.578Z,36.77
2019-02-06T13:52:43.340Z,35.23
2019-02-06T13:55:14.520Z,35.43
2019-02-06T13:57:52.238Z,33.23
2019-02-06T14:00:28.858Z,30.93
2019-02-06T14:02:59.020Z,30.30
2019-02-06T14:05:32.713Z,33.43
2019-02-06T14:08:08.397Z,40.37
2019-02-06T14:10:39.263Z,33.60
2019-02-06T14:13:08.834Z,33.97
2019-02-06T14:18:11.281Z,33.70
2019-02-06T14:20:41.775Z,35.67
2019-02-06T14:23:36.521Z,35.23
2019-02-06T14:26:33.010Z,35.10
2019-02-06T14:29:36.105Z,33.23
2019-02-06T14:33:07.112Z,32.83
2019-02-06T14:36:06.883Z,36.23
2019-02-06T14:39:13.623Z,32.93
2019-02-06T14:42:09.269Z,41.50
2019-02-06T14:45:17.430Z,36.07
2019-02-06T14:48:17.967Z,37.37
2019-02-06T14:51:39.533Z,39.90
2019-02-06T14:54:28.945Z,38.57
2019-02-06T14:57:17.670Z,40.73
2019-02-06T15:00:14.751Z,45.17
2019-02-06T15:03:11.687Z,47.57
2019-02-06T15:06:10.934Z,41.80
2019-02-06T15:09:22.346Z,43.70
2019-02-06T15:12:00.204Z,42.13
2019-02-06T15:15:05.379Z,44.70
2019-02-06T15:17:49.906Z,44.77
2019-02-06T15:20:46.935Z,44.73
2019-02-06T15:23:32.532Z,42.80
2019-02-06T15:26:39.505Z,42.95
2019-02-06T15:29:54.477Z,44.05
2019-02-06T15:33:03.562Z,42.57
2019-02-06T15:35:59.019Z,45.33
2019-02-06T15:39:10.819Z,45.83
2019-02-06T15:42:38.222Z,41.87
2019-02-06T15:45:37.902Z,42.03
2019-02-06T15:48:36.292Z,38.75
2019-02-06T15:51:42.594Z,42.17
2019-02-06T15:54:52.800Z,41.20
2019-02-06T15:58:11.497Z,38.15
2019-02-06T16:01:17.405Z,41.10
2019-02-06T16:04:26.942Z,45.78
2019-02-06T16:07:32.061Z,42.45
2019-02-06T16:10:33.504Z,43.58
2019-02-06T16:13:31.940Z,50.35
2019-02-06T16:16:41.717Z,48.45
2019-02-06T16:19:39.862Z,47.55
2019-02-06T16:22:42.004Z,52.85
2019-02-06T16:25:55.683Z,59.33
2019-02-06T16:28:36.194Z,55.45
2019-02-06T16:31:52.756Z,57.88
2019-02-06T16:34:52.214Z,57.23
2019-02-06T16:37:51.469Z,62.33
2019-02-06T16:41:17.710Z,62.25
2019-02-06T16:44:04.959Z,60.23
2019-02-06T16:47:12.838Z,61.18
2019-02-06T16:50:06.362Z,62.33
2019-02-06T16:53:20.341Z,58.58
2019-02-06T16:56:33.345Z,61.35
2019-02-06T16:59:25.725Z,58.42
2019-02-06T17:02:35.724Z,62.62
2019-02-06T17:05:52.731Z,63.78
2019-02-06T17:09:00.160Z,69.77
2019-02-06T17:12:15.843Z,66.25
2019-02-06T17:15:32.350Z,68.22
2019-02-06T17:18:48.577Z,70.92
2019-02-06T17:22:00.912Z,77.70
2019-02-06T17:25:03.799Z,70.22
2019-02-06T17:27:48.096Z,73.45
2019-02-06T17:30:36.811Z,65.55
2019-02-06T17:33:53.300Z,70.78
2019-02-06T17:36:58.958Z,70.25
2019-02-06T17:39:52.036Z,70.12
2019-02-06T17:42:41.543Z,67.55
2019-02-06T17:45:33.279Z,66.42
2019-02-06T17:48:31.310Z,72.70
2019-02-06T17:51:55.673Z,76.87
2019-02-06T17:54:51.412Z,67.17
2019-02-06T17:57:21.162Z,78.83
2019-02-06T17:59:54.351Z,74.03
2019-02-06T18:02:27.088Z,79.60
2019-02-06T18:04:56.227Z,71.80
2019-02-06T18:07:28.702Z,68.40
2019-02-06T18:10:02.294Z,69.20
2019-02-06T18:12:35.461Z,71.07
2019-02-06T18:15:10.339Z,83.87
2019-02-06T18:17:40.422Z,77.32
2019-02-06T18:20:16.524Z,74.47
2019-02-06T18:22:46.544Z,64.05
2019-02-06T18:25:23.675Z,70.67
2019-02-06T18:27:56.030Z,71.02
2019-02-06T18:30:30.885Z,72.15
2019-02-06T18:33:03.854Z,75.05
2019-02-06T18:35:39.081Z,74.15
2019-02-06T18:38:20.854Z,70.72
2019-02-06T18:40:58.370Z,87.55
2019-02-06T18:43:32.618Z,71.65
2019-02-06T18:46:04.226Z,68.92
2019-02-06T18:48:38.007Z,81.32
2019-02-06T18:51:08.950Z,78.28
2019-02-06T18:53:38.352Z,75.17
2019-02-06T18:56:09.330Z,78.45
2019-02-06T18:58:40.642Z,74.37
2019-02-06T19:01:09.684Z,73.78
2019-02-06T19:03:42.291Z,71.50
2019-02-06T19:06:12.923Z,63.87
2019-02-06T19:08:43.326Z,64.22
2019-02-06T19:11:12.668Z,60.50
2019-02-06T19:13:42.834Z,64.77
2019-02-06T19:16:20.884Z,60.45
2019-02-06T19:18:53.114Z,56.05
2019-02-06T19:21:26.122Z,57.85
2019-02-06T19:23:59.161Z,58.85
2019-02-06T19:26:28.479Z,55.30
2019-02-06T19:28:58.541Z,57.60
2019-02-06T19:31:29.504Z,59.77
2019-02-06T19:33:58.982Z,66.17
2019-02-06T19:36:30.587Z,71.37
2019-02-06T19:39:00.195Z,66.62
2019-02-06T19:41:29.659Z,60.95
2019-02-06T19:43:59.099Z,57.93
2019-02-06T19:46:33.084Z,51.30
2019-02-06T19:49:06.655Z,47.50
2019-02-06T19:51:36.176Z,60.88
2019-02-06T19:54:05.345Z,48.85
2019-02-06T19:56:35.282Z,57.17
2019-02-06T19:59:09.374Z,55.92
2019-02-06T20:04:36.378Z,55.12
2019-02-06T20:07:07.885Z,53.45
2019-02-06T20:09:40.761Z,59.60
2019-02-06T20:12:11.076Z,60.28
2019-02-06T20:14:41.184Z,53.83
2019-02-06T20:17:13.946Z,58.08
2019-02-06T20:19:46.382Z,59.50
2019-02-06T20:22:15.643Z,53.95
2019-02-06T20:24:45.134Z,68.78
2019-02-06T20:27:19.322Z,58.13
2019-02-06T20:29:50.783Z,62.67
2019-02-06T20:32:24.504Z,59.50
2019-02-06T20:34:55.548Z,53.45
2019-02-06T20:37:27.703Z,56.50
2019-02-06T20:40:10.039Z,56.48
2019-02-06T20:42:39.650Z,59.45
2019-02-06T20:45:10.316Z,55.38
2019-02-06T20:47:41.241Z,65.52
2019-02-06T20:50:20.251Z,56.53
2019-02-06T20:52:51.075Z,59.25
2019-02-06T20:55:21.634Z,56.10
2019-02-06T20:57:59.290Z,57.80
2019-02-06T21:00:33.455Z,60.17
2019-02-06T21:03:02.653Z,57.08
2019-02-06T21:05:33.804Z,61.77
2019-02-06T21:08:07.182Z,67.47
2019-02-06T21:10:36.570Z,57.15
2019-02-06T21:13:06.678Z,60.40
2019-02-06T21:15:36.838Z,53.73
2019-02-06T21:18:06.538Z,49.05
2019-02-06T21:20:39.488Z,51.08
2019-02-06T21:23:11.078Z,47.50
2019-02-06T21:25:42.495Z,74.40
2019-02-06T21:28:13.716Z,48.48
2019-02-06T21:30:43.633Z,50.63
2019-02-06T21:33:17.302Z,48.60
2019-02-06T21:35:53.333Z,44.58
2019-02-06T21:38:22.422Z,47.53
2019-02-06T21:40:54.746Z,60.08
2019-02-06T21:43:25.354Z,44.58
2019-02-06T21:45:57.442Z,46.73
2019-02-06T21:48:32.551Z,45.50
2019-02-06T21:51:48.265Z,46.10
2019-02-06T21:54:33.509Z,53.58
2019-02-06T21:57:10.886Z,51.08
2019-02-06T21:59:48.544Z,55.00
2019-02-06T22:02:33.476Z,42.38
2019-02-06T22:05:25.954Z,46.53
2019-02-06T22:08:15.970Z,63.80
2019-02-06T22:11:10.170Z,44.23
2019-02-06T22:13:40.118Z,46.88
2019-02-06T22:16:14.038Z,53.10
2019-02-06T22:19:04.821Z,45.65
2019-02-06T22:21:34.319Z,45.55
2019-02-06T22:24:04.198Z,48.60
2019-02-06T22:26:37.306Z,44.63
2019-02-06T22:29:06.440Z,57.55
2019-02-06T22:31:35.698Z,48.78
2019-02-06T22:34:05.226Z,48.13
2019-02-06T22:36:36.527Z,49.25
2019-02-06T22:39:17.717Z,56.25
2019-02-06T22:41:51.497Z,42.93
2019-02-06T22:44:23.935Z,47.53
2019-02-06T22:47:13.901Z,48.87
2019-02-06T22:49:49.182Z,44.33
2019-02-06T22:52:18.235Z,42.70
2019-02-06T22:55:00.637Z,54.03
2019-02-06T22:57:39.685Z,45.50
2019-02-06T23:00:34.330Z,53.63
2019-02-06T23:03:15.391Z,43.02
2019-02-06T23:05:45.611Z,45.85
2019-02-06T23:08:18.135Z,45.92
2019-02-06T23:10:49.553Z,46.53
2019-02-06T23:13:20.595Z,44.20
2019-02-06T23:15:53.176Z,47.30
2019-02-06T23:18:24.782Z,47.10
2019-02-06T23:20:53.860Z,42.20
2019-02-06T23:23:22.967Z,42.98
2019-02-06T23:25:55.713Z,42.20
2019-02-06T23:28:26.904Z,49.48
2019-02-06T23:30:55.989Z,52.03
2019-02-06T23:33:25.655Z,41.42
2019-02-06T23:35:54.743Z,44.93
2019-02-06T23:38:25.918Z,47.15
2019-02-06T23:40:58.174Z,41.37
2019-02-06T23:43:27.261Z,39.53
2019-02-06T23:45:57.354Z,43.45
2019-02-06T23:48:26.472Z,43.48
2019-02-06T23:50:56.731Z,41.25
2019-02-06T23:53:26.574Z,39.03
2019-02-06T23:55:57.711Z,37.48
2019-02-06T23:58:32.957Z,41.35
